sensor_id;sensor_type;location;lat;lon;timestamp;pressure;altitude;pressure_sealevel;temperature;humidity
14067;BME280;7108;42.684;23.350;2023-04-21T00:01:55;94937.38;;;11.78;100.00
14067;BME280;7108;42.684;23.350;2023-04-21T00:04:20;94942.34;;;11.77;100.00
14067;BME280;7108;42.684;23.350;2023-04-21T00:06:46;94928.84;;;11.77;100.00
14067;BME280;7108;42.684;23.350;2023-04-21T00:09:11;94927.59;;;11.67;100.00
14067;BME280;7108;42.684;23.350;2023-04-21T00:11:37;94932.19;;;11.63;100.00
14067;BME280;7108;42.684;23.350;2023-04-21T00:14:02;94933.38;;;11.66;100.00
14067;BME280;7108;42.684;23.350;2023-04-21T00:16:27;94940.22;;;11.56;100.00
14067;BME280;7108;42.684;23.350;2023-04-21T00:18:53;94920.94;;;11.54;100.00
14067;BME280;7108;42.684;23.350;2023-04-21T00:21:18;94928.97;;;11.51;100.00
14067;BME280;7108;42.684;23.350;2023-04-21T00:23:44;94931.31;;;11.52;100.00
14067;BME280;7108;42.684;23.350;2023-04-21T00:26:11;94923.88;;;11.46;100.00
14067;BME280;7108;42.684;23.350;2023-04-21T00:28:37;94930.03;;;11.43;100.00
14067;BME280;7108;42.684;23.350;2023-04-21T00:31:02;94934.63;;;11.42;100.00
14067;BME280;7108;42.684;23.350;2023-04-21T00:33:28;94938.84;;;11.40;100.00
14067;BME280;7108;42.684;23.350;2023-04-21T00:35:53;94931.41;;;11.30;100.00
14067;BME280;7108;42.684;23.350;2023-04-21T00:38:20;94941.47;;;11.33;100.00
14067;BME280;7108;42.684;23.350;2023-04-21T00:40:46;94940.66;;;11.29;100.00
14067;BME280;7108;42.684;23.350;2023-04-21T00:43:11;94934.13;;;11.30;100.00
14067;BME280;7108;42.684;23.350;2023-04-21T00:45:37;94934.50;;;11.28;100.00
14067;BME280;7108;42.684;23.350;2023-04-21T00:48:02;94937.94;;;11.29;100.00
14067;BME280;7108;42.684;23.350;2023-04-21T00:50:28;94939.09;;;11.28;100.00
14067;BME280;7108;42.684;23.350;2023-04-21T00:52:54;94926.34;;;11.25;100.00
14067;BME280;7108;42.684;23.350;2023-04-21T00:55:20;94931.31;;;11.23;100.00
14067;BME280;7108;42.684;23.350;2023-04-21T00:57:46;94918.16;;;11.18;100.00
14067;BME280;7108;42.684;23.350;2023-04-21T01:00:13;94926.25;;;11.18;100.00
14067;BME280;7108;42.684;23.350;2023-04-21T01:02:39;94924.72;;;11.17;100.00
14067;BME280;7108;42.684;23.350;2023-04-21T01:05:05;94928.16;;;11.14;100.00
14067;BME280;7108;42.684;23.350;2023-04-21T01:07:33;94923.47;;;11.08;100.00
14067;BME280;7108;42.684;23.350;2023-04-21T01:09:59;94925.00;;;11.09;100.00
14067;BME280;7108;42.684;23.350;2023-04-21T01:12:25;94922.31;;;11.09;100.00
14067;BME280;7108;42.684;23.350;2023-04-21T01:14:51;94926.09;;;11.04;100.00
14067;BME280;7108;42.684;23.350;2023-04-21T01:17:16;94928.34;;;10.99;100.00
14067;BME280;7108;42.684;23.350;2023-04-21T01:19:43;94911.72;;;10.93;100.00
14067;BME280;7108;42.684;23.350;2023-04-21T01:22:11;94909.34;;;10.88;100.00
14067;BME280;7108;42.684;23.350;2023-04-21T01:24:41;94918.53;;;10.84;100.00
14067;BME280;7108;42.684;23.350;2023-04-21T01:27:12;94922.81;;;10.88;100.00
14067;BME280;7108;42.684;23.350;2023-04-21T01:29:39;94927.44;;;10.88;100.00
14067;BME280;7108;42.684;23.350;2023-04-21T01:32:08;94921.25;;;10.87;100.00
14067;BME280;7108;42.684;23.350;2023-04-21T01:34:34;94922.66;;;10.74;100.00
14067;BME280;7108;42.684;23.350;2023-04-21T01:36:59;94922.22;;;10.72;100.00
14067;BME280;7108;42.684;23.350;2023-04-21T01:39:25;94919.16;;;10.74;100.00
14067;BME280;7108;42.684;23.350;2023-04-21T01:41:51;94911.78;;;10.67;100.00
14067;BME280;7108;42.684;23.350;2023-04-21T01:44:16;94920.22;;;10.66;100.00
14067;BME280;7108;42.684;23.350;2023-04-21T01:46:42;94918.28;;;10.63;100.00
14067;BME280;7108;42.684;23.350;2023-04-21T01:49:07;94915.28;;;10.42;100.00
14067;BME280;7108;42.684;23.350;2023-04-21T01:51:33;94911.41;;;10.40;100.00
14067;BME280;7108;42.684;23.350;2023-04-21T01:53:58;94914.22;;;10.50;100.00
14067;BME280;7108;42.684;23.350;2023-04-21T01:56:24;94920.34;;;10.47;100.00
14067;BME280;7108;42.684;23.350;2023-04-21T01:58:49;94917.28;;;10.48;100.00
14067;BME280;7108;42.684;23.350;2023-04-21T02:01:17;94915.31;;;10.45;100.00
14067;BME280;7108;42.684;23.350;2023-04-21T02:03:42;94922.19;;;10.40;100.00
14067;BME280;7108;42.684;23.350;2023-04-21T02:06:08;94922.19;;;10.40;100.00
14067;BME280;7108;42.684;23.350;2023-04-21T02:08:33;94906.72;;;10.37;100.00
14067;BME280;7108;42.684;23.350;2023-04-21T02:11:00;94927.25;;;10.45;100.00
14067;BME280;7108;42.684;23.350;2023-04-21T02:13:25;94924.44;;;10.38;100.00
14067;BME280;7108;42.684;23.350;2023-04-21T02:15:51;94926.66;;;10.32;100.00
14067;BME280;7108;42.684;23.350;2023-04-21T02:18:17;94910.25;;;10.15;100.00
14067;BME280;7108;42.684;23.350;2023-04-21T02:20:42;94918.31;;;10.15;100.00
14067;BME280;7108;42.684;23.350;2023-04-21T02:23:07;94919.16;;;10.19;100.00
14067;BME280;7108;42.684;23.350;2023-04-21T02:25:33;94920.25;;;10.14;100.00
14067;BME280;7108;42.684;23.350;2023-04-21T02:27:58;94914.13;;;10.17;100.00
14067;BME280;7108;42.684;23.350;2023-04-21T02:30:24;94906.34;;;10.12;100.00
14067;BME280;7108;42.684;23.350;2023-04-21T02:32:49;94911.03;;;10.15;100.00
14067;BME280;7108;42.684;23.350;2023-04-21T02:35:14;94921.44;;;10.17;100.00
14067;BME280;7108;42.684;23.350;2023-04-21T02:37:40;94907.16;;;10.13;100.00
14067;BME280;7108;42.684;23.350;2023-04-21T02:40:06;94914.75;;;10.07;100.00
14067;BME280;7108;42.684;23.350;2023-04-21T02:42:32;94912.84;;;10.08;100.00
14067;BME280;7108;42.684;23.350;2023-04-21T02:44:58;94915.94;;;10.10;100.00
14067;BME280;7108;42.684;23.350;2023-04-21T02:47:24;94910.91;;;10.08;100.00
14067;BME280;7108;42.684;23.350;2023-04-21T02:49:50;94918.25;;;10.11;100.00
14067;BME280;7108;42.684;23.350;2023-04-21T02:52:15;94914.44;;;10.12;100.00
14067;BME280;7108;42.684;23.350;2023-04-21T02:54:41;94919.16;;;10.19;100.00
14067;BME280;7108;42.684;23.350;2023-04-21T02:57:06;94922.63;;;10.19;100.00
14067;BME280;7108;42.684;23.350;2023-04-21T02:59:31;94916.88;;;10.21;100.00
14067;BME280;7108;42.684;23.350;2023-04-21T03:01:57;94926.94;;;10.24;100.00
14067;BME280;7108;42.684;23.350;2023-04-21T03:04:22;94929.41;;;10.36;100.00
14067;BME280;7108;42.684;23.350;2023-04-21T03:06:50;94922.94;;;10.40;100.00
14067;BME280;7108;42.684;23.350;2023-04-21T03:09:15;94909.00;;;10.35;100.00
14067;BME280;7108;42.684;23.350;2023-04-21T03:11:41;94920.00;;;10.48;100.00
14067;BME280;7108;42.684;23.350;2023-04-21T03:14:06;94913.31;;;10.39;100.00
14067;BME280;7108;42.684;23.350;2023-04-21T03:16:32;94921.88;;;10.45;100.00
14067;BME280;7108;42.684;23.350;2023-04-21T03:18:57;94921.13;;;10.47;100.00
14067;BME280;7108;42.684;23.350;2023-04-21T03:21:22;94921.53;;;10.49;100.00
14067;BME280;7108;42.684;23.350;2023-04-21T03:23:48;94925.44;;;10.52;100.00
14067;BME280;7108;42.684;23.350;2023-04-21T03:26:13;94920.81;;;10.52;100.00
14067;BME280;7108;42.684;23.350;2023-04-21T03:28:39;94921.22;;;10.54;100.00
14067;BME280;7108;42.684;23.350;2023-04-21T03:31:04;94920.38;;;10.50;100.00
14067;BME280;7108;42.684;23.350;2023-04-21T03:33:30;94920.13;;;10.59;100.00
14067;BME280;7108;42.684;23.350;2023-04-21T03:35:55;94920.88;;;10.56;100.00
14067;BME280;7108;42.684;23.350;2023-04-21T03:38:21;94929.75;;;10.60;100.00
14067;BME280;7108;42.684;23.350;2023-04-21T03:40:46;94911.78;;;10.42;100.00
14067;BME280;7108;42.684;23.350;2023-04-21T03:43:11;94924.25;;;10.53;100.00
14067;BME280;7108;42.684;23.350;2023-04-21T03:45:37;94925.88;;;10.57;100.00
14067;BME280;7108;42.684;23.350;2023-04-21T03:48:02;94933.81;;;10.73;100.00
14067;BME280;7108;42.684;23.350;2023-04-21T03:50:28;94918.72;;;10.68;100.00
14067;BME280;7108;42.684;23.350;2023-04-21T03:52:53;94938.88;;;10.81;100.00
14067;BME280;7108;42.684;23.350;2023-04-21T03:55:19;94929.91;;;10.70;100.00
14067;BME280;7108;42.684;23.350;2023-04-21T03:57:45;94934.31;;;10.82;100.00
14067;BME280;7108;42.684;23.350;2023-04-21T04:00:11;94927.28;;;10.77;100.00
14067;BME280;7108;42.684;23.350;2023-04-21T04:02:37;94930.47;;;10.83;100.00
14067;BME280;7108;42.684;23.350;2023-04-21T04:05:03;94939.81;;;10.92;100.00
14067;BME280;7108;42.684;23.350;2023-04-21T04:07:30;94936.41;;;10.95;100.00
14067;BME280;7108;42.684;23.350;2023-04-21T04:09:56;94944.22;;;11.07;100.00
14067;BME280;7108;42.684;23.350;2023-04-21T04:12:21;94942.75;;;11.13;100.00
14067;BME280;7108;42.684;23.350;2023-04-21T04:14:47;94950.63;;;11.25;100.00
14067;BME280;7108;42.684;23.350;2023-04-21T04:17:12;94949.75;;;11.17;100.00
14067;BME280;7108;42.684;23.350;2023-04-21T04:19:38;94954.19;;;11.03;100.00
14067;BME280;7108;42.684;23.350;2023-04-21T04:22:03;94958.00;;;10.99;100.00
14067;BME280;7108;42.684;23.350;2023-04-21T04:24:31;94957.31;;;11.05;100.00
14067;BME280;7108;42.684;23.350;2023-04-21T04:26:58;94965.31;;;10.98;100.00
14067;BME280;7108;42.684;23.350;2023-04-21T04:29:24;94966.81;;;10.96;100.00
14067;BME280;7108;42.684;23.350;2023-04-21T04:31:51;94972.69;;;11.01;100.00
14067;BME280;7108;42.684;23.350;2023-04-21T04:34:17;94969.25;;;11.04;100.00
14067;BME280;7108;42.684;23.350;2023-04-21T04:36:43;94971.88;;;11.01;100.00
14067;BME280;7108;42.684;23.350;2023-04-21T04:39:08;94969.72;;;11.10;100.00
14067;BME280;7108;42.684;23.350;2023-04-21T04:41:35;94972.47;;;11.16;100.00
14067;BME280;7108;42.684;23.350;2023-04-21T04:44:01;94977.53;;;11.21;100.00
14067;BME280;7108;42.684;23.350;2023-04-21T04:46:32;94974.84;;;11.21;100.00
14067;BME280;7108;42.684;23.350;2023-04-21T04:48:59;94973.38;;;11.27;100.00
14067;BME280;7108;42.684;23.350;2023-04-21T04:51:24;94964.25;;;11.35;100.00
14067;BME280;7108;42.684;23.350;2023-04-21T04:53:50;94974.34;;;11.42;100.00
14067;BME280;7108;42.684;23.350;2023-04-21T04:56:15;94969.75;;;11.46;100.00
14067;BME280;7108;42.684;23.350;2023-04-21T04:58:41;94979.53;;;11.57;100.00
14067;BME280;7108;42.684;23.350;2023-04-21T05:01:11;94981.41;;;11.53;100.00
14067;BME280;7108;42.684;23.350;2023-04-21T05:03:37;94983.69;;;11.51;100.00
14067;BME280;7108;42.684;23.350;2023-04-21T05:06:02;94982.16;;;11.50;100.00
14067;BME280;7108;42.684;23.350;2023-04-21T05:08:28;94985.31;;;11.56;100.00
14067;BME280;7108;42.684;23.350;2023-04-21T05:10:53;94986.91;;;11.60;100.00
14067;BME280;7108;42.684;23.350;2023-04-21T05:13:18;94986.19;;;11.67;100.00
14067;BME280;7108;42.684;23.350;2023-04-21T05:15:44;94984.38;;;11.77;100.00
14067;BME280;7108;42.684;23.350;2023-04-21T05:18:09;94990.66;;;11.88;100.00
14067;BME280;7108;42.684;23.350;2023-04-21T05:20:35;94986.50;;;11.94;100.00
14067;BME280;7108;42.684;23.350;2023-04-21T05:23:00;94974.91;;;11.94;100.00
14067;BME280;7108;42.684;23.350;2023-04-21T05:25:26;94980.81;;;12.06;100.00
14067;BME280;7108;42.684;23.350;2023-04-21T05:27:51;94980.41;;;12.04;100.00
14067;BME280;7108;42.684;23.350;2023-04-21T05:30:17;94980.47;;;12.11;100.00
14067;BME280;7108;42.684;23.350;2023-04-21T05:32:42;94974.72;;;12.16;100.00
14067;BME280;7108;42.684;23.350;2023-04-21T05:35:08;94976.00;;;12.29;100.00
14067;BME280;7108;42.684;23.350;2023-04-21T05:37:34;94978.81;;;12.43;100.00
14067;BME280;7108;42.684;23.350;2023-04-21T05:39:59;94988.19;;;12.56;100.00
14067;BME280;7108;42.684;23.350;2023-04-21T05:42:24;94973.84;;;12.48;100.00
14067;BME280;7108;42.684;23.350;2023-04-21T05:44:50;94979.66;;;12.54;100.00
14067;BME280;7108;42.684;23.350;2023-04-21T05:47:15;94977.75;;;12.54;100.00
14067;BME280;7108;42.684;23.350;2023-04-21T05:49:41;94980.09;;;12.63;100.00
14067;BME280;7108;42.684;23.350;2023-04-21T05:52:09;94990.50;;;12.57;100.00
14067;BME280;7108;42.684;23.350;2023-04-21T05:54:34;94970.00;;;12.53;100.00
14067;BME280;7108;42.684;23.350;2023-04-21T05:57:00;94982.13;;;12.76;100.00
14067;BME280;7108;42.684;23.350;2023-04-21T05:59:26;94976.66;;;12.66;100.00
14067;BME280;7108;42.684;23.350;2023-04-21T06:01:51;94968.63;;;12.80;100.00
14067;BME280;7108;42.684;23.350;2023-04-21T06:04:16;94978.03;;;12.93;100.00
14067;BME280;7108;42.684;23.350;2023-04-21T06:06:42;94961.81;;;12.96;100.00
14067;BME280;7108;42.684;23.350;2023-04-21T06:09:08;94959.88;;;12.97;100.00
14067;BME280;7108;42.684;23.350;2023-04-21T06:11:34;94971.50;;;13.04;100.00
14067;BME280;7108;42.684;23.350;2023-04-21T06:13:59;94958.38;;;13.09;100.00
14067;BME280;7108;42.684;23.350;2023-04-21T06:16:25;94957.25;;;13.14;100.00
14067;BME280;7108;42.684;23.350;2023-04-21T06:18:51;94960.06;;;13.35;100.00
14067;BME280;7108;42.684;23.350;2023-04-21T06:21:17;94966.25;;;13.39;100.00
14067;BME280;7108;42.684;23.350;2023-04-21T06:23:42;94973.91;;;13.23;100.00
14067;BME280;7108;42.684;23.350;2023-04-21T06:26:08;94969.13;;;12.92;100.00
14067;BME280;7108;42.684;23.350;2023-04-21T06:28:34;94973.84;;;13.06;100.00
14067;BME280;7108;42.684;23.350;2023-04-21T06:31:01;94967.28;;;13.07;100.00
14067;BME280;7108;42.684;23.350;2023-04-21T06:33:27;94958.84;;;13.25;100.00
14067;BME280;7108;42.684;23.350;2023-04-21T06:35:53;94958.94;;;13.39;100.00
14067;BME280;7108;42.684;23.350;2023-04-21T06:38:19;94960.16;;;13.63;100.00
14067;BME280;7108;42.684;23.350;2023-04-21T06:40:44;94956.69;;;13.69;100.00
14067;BME280;7108;42.684;23.350;2023-04-21T06:43:10;94951.69;;;13.78;100.00
14067;BME280;7108;42.684;23.350;2023-04-21T06:45:35;94956.25;;;13.50;100.00
14067;BME280;7108;42.684;23.350;2023-04-21T06:48:00;94949.22;;;13.31;100.00
14067;BME280;7108;42.684;23.350;2023-04-21T06:50:26;94957.94;;;12.90;100.00
14067;BME280;7108;42.684;23.350;2023-04-21T06:52:51;94963.34;;;12.90;100.00
14067;BME280;7108;42.684;23.350;2023-04-21T06:55:17;94962.94;;;12.88;100.00
14067;BME280;7108;42.684;23.350;2023-04-21T06:57:42;94954.16;;;13.12;100.00
14067;BME280;7108;42.684;23.350;2023-04-21T07:00:08;94945.72;;;13.27;100.00
14067;BME280;7108;42.684;23.350;2023-04-21T07:02:34;94947.28;;;13.35;100.00
14067;BME280;7108;42.684;23.350;2023-04-21T07:04:59;94950.69;;;13.11;100.00
14067;BME280;7108;42.684;23.350;2023-04-21T07:07:25;94947.22;;;13.18;100.00
14067;BME280;7108;42.684;23.350;2023-04-21T07:09:50;94944.19;;;13.30;100.00
14067;BME280;7108;42.684;23.350;2023-04-21T07:12:16;94950.06;;;13.49;100.00
14067;BME280;7108;42.684;23.350;2023-04-21T07:14:41;94956.66;;;13.52;100.00
14067;BME280;7108;42.684;23.350;2023-04-21T07:17:07;94950.53;;;13.79;100.00
14067;BME280;7108;42.684;23.350;2023-04-21T07:19:32;94947.91;;;14.10;100.00
14067;BME280;7108;42.684;23.350;2023-04-21T07:21:57;94948.25;;;14.05;100.00
14067;BME280;7108;42.684;23.350;2023-04-21T07:24:23;94945.53;;;13.98;100.00
14067;BME280;7108;42.684;23.350;2023-04-21T07:26:48;94944.75;;;13.87;100.00
14067;BME280;7108;42.684;23.350;2023-04-21T07:29:14;94946.38;;;14.13;100.00
14067;BME280;7108;42.684;23.350;2023-04-21T07:31:39;94947.53;;;14.26;100.00
14067;BME280;7108;42.684;23.350;2023-04-21T07:34:05;94937.84;;;14.39;100.00
14067;BME280;7108;42.684;23.350;2023-04-21T07:36:30;94933.19;;;14.43;100.00
14067;BME280;7108;42.684;23.350;2023-04-21T07:38:56;94931.63;;;14.59;100.00
14067;BME280;7108;42.684;23.350;2023-04-21T07:41:21;94943.97;;;14.95;100.00
14067;BME280;7108;42.684;23.350;2023-04-21T07:43:46;94928.53;;;14.71;100.00
14067;BME280;7108;42.684;23.350;2023-04-21T07:46:12;94949.06;;;14.54;100.00
14067;BME280;7108;42.684;23.350;2023-04-21T07:48:38;94951.00;;;14.30;100.00
14067;BME280;7108;42.684;23.350;2023-04-21T07:51:04;94947.91;;;14.21;100.00
14067;BME280;7108;42.684;23.350;2023-04-21T07:53:30;94944.44;;;14.17;100.00
14067;BME280;7108;42.684;23.350;2023-04-21T07:55:55;94942.09;;;14.12;100.00
14067;BME280;7108;42.684;23.350;2023-04-21T07:58:21;94939.38;;;14.26;100.00
14067;BME280;7108;42.684;23.350;2023-04-21T08:00:47;94942.50;;;14.48;100.00
14067;BME280;7108;42.684;23.350;2023-04-21T08:03:13;94946.75;;;14.39;100.00
14067;BME280;7108;42.684;23.350;2023-04-21T08:05:38;94946.75;;;14.36;100.00
14067;BME280;7108;42.684;23.350;2023-04-21T08:08:04;94954.09;;;14.42;100.00
14067;BME280;7108;42.684;23.350;2023-04-21T08:10:29;94944.81;;;14.46;100.00
14067;BME280;7108;42.684;23.350;2023-04-21T08:12:55;94938.22;;;14.58;100.00
14067;BME280;7108;42.684;23.350;2023-04-21T08:15:20;94938.97;;;14.65;100.00
14067;BME280;7108;42.684;23.350;2023-04-21T08:17:46;94939.72;;;14.76;100.00
14067;BME280;7108;42.684;23.350;2023-04-21T08:20:12;94931.59;;;14.83;100.00
14067;BME280;7108;42.684;23.350;2023-04-21T08:22:37;94911.72;;;15.17;100.00
14067;BME280;7108;42.684;23.350;2023-04-21T08:25:03;94926.00;;;15.42;100.00
14067;BME280;7108;42.684;23.350;2023-04-21T08:27:29;94926.72;;;15.50;100.00
14067;BME280;7108;42.684;23.350;2023-04-21T08:29:55;94926.72;;;15.53;100.00
14067;BME280;7108;42.684;23.350;2023-04-21T08:32:20;94933.41;;;15.31;100.00
14067;BME280;7108;42.684;23.350;2023-04-21T08:34:51;94929.94;;;15.31;100.00
14067;BME280;7108;42.684;23.350;2023-04-21T08:37:17;94920.16;;;15.40;100.00
14067;BME280;7108;42.684;23.350;2023-04-21T08:39:46;94935.69;;;15.47;100.00
14067;BME280;7108;42.684;23.350;2023-04-21T08:42:12;94936.94;;;15.25;100.00
14067;BME280;7108;42.684;23.350;2023-04-21T08:44:39;94923.72;;;15.20;100.00
14067;BME280;7108;42.684;23.350;2023-04-21T08:47:08;94919.47;;;15.29;100.00
14067;BME280;7108;42.684;23.350;2023-04-21T08:49:36;94899.22;;;15.48;100.00
14067;BME280;7108;42.684;23.350;2023-04-21T08:52:02;94923.03;;;15.87;100.00
14067;BME280;7108;42.684;23.350;2023-04-21T08:54:27;94918.25;;;16.05;100.00
14067;BME280;7108;42.684;23.350;2023-04-21T08:56:53;94921.06;;;15.91;100.00
14067;BME280;7108;42.684;23.350;2023-04-21T08:59:18;94915.25;;;15.89;100.00
14067;BME280;7108;42.684;23.350;2023-04-21T09:02:06;94913.91;;;16.15;100.00
14067;BME280;7108;42.684;23.350;2023-04-21T09:04:32;94911.50;;;16.24;100.00
14067;BME280;7108;42.684;23.350;2023-04-21T09:06:58;94908.72;;;16.38;100.00
14067;BME280;7108;42.684;23.350;2023-04-21T09:09:23;94913.94;;;16.11;100.00
14067;BME280;7108;42.684;23.350;2023-04-21T09:11:56;94912.69;;;16.23;100.00
14067;BME280;7108;42.684;23.350;2023-04-21T09:14:30;94895.25;;;16.20;100.00
14067;BME280;7108;42.684;23.350;2023-04-21T09:17:03;94898.47;;;16.52;100.00
14067;BME280;7108;42.684;23.350;2023-04-21T09:19:29;94898.16;;;16.46;100.00
14067;BME280;7108;42.684;23.350;2023-04-21T09:21:59;94897.16;;;16.27;100.00
14067;BME280;7108;42.684;23.350;2023-04-21T09:24:25;94880.03;;;16.26;100.00
14067;BME280;7108;42.684;23.350;2023-04-21T09:26:52;94882.69;;;15.86;100.00
14067;BME280;7108;42.684;23.350;2023-04-21T09:29:24;94885.47;;;15.75;100.00
14067;BME280;7108;42.684;23.350;2023-04-21T09:31:51;94889.19;;;15.95;100.00
14067;BME280;7108;42.684;23.350;2023-04-21T09:36:44;94881.69;;;16.17;98.77
14067;BME280;7108;42.684;23.350;2023-04-21T09:39:10;94873.75;;;16.36;100.00
14067;BME280;7108;42.684;23.350;2023-04-21T09:41:35;94875.72;;;16.32;89.58
14067;BME280;7108;42.684;23.350;2023-04-21T09:44:01;94879.16;;;16.40;88.00
14067;BME280;7108;42.684;23.350;2023-04-21T09:46:31;94876.19;;;16.67;86.22
14067;BME280;7108;42.684;23.350;2023-04-21T09:48:59;94873.03;;;16.29;85.76
14067;BME280;7108;42.684;23.350;2023-04-21T09:51:26;94864.97;;;16.18;90.37
14067;BME280;7108;42.684;23.350;2023-04-21T09:53:58;94862.72;;;16.06;89.78
14067;BME280;7108;42.684;23.350;2023-04-21T09:56:24;94869.59;;;16.21;88.94
14067;BME280;7108;42.684;23.350;2023-04-21T09:58:57;94869.59;;;16.21;86.85
14067;BME280;7108;42.684;23.350;2023-04-21T10:01:26;94873.13;;;16.18;88.20
14067;BME280;7108;42.684;23.350;2023-04-21T10:03:51;94859.06;;;16.30;92.21
14067;BME280;7108;42.684;23.350;2023-04-21T10:06:17;94876.44;;;16.40;93.47
14067;BME280;7108;42.684;23.350;2023-04-21T10:08:43;94867.25;;;16.23;92.59
14067;BME280;7108;42.684;23.350;2023-04-21T10:11:09;94868.00;;;16.27;89.01
14067;BME280;7108;42.684;23.350;2023-04-21T10:13:36;94864.81;;;16.39;91.72
14067;BME280;7108;42.684;23.350;2023-04-21T10:18:28;94859.97;;;16.57;99.70
14067;BME280;7108;42.684;23.350;2023-04-21T10:21:07;94860.44;;;16.48;98.27
14067;BME280;7108;42.684;23.350;2023-04-21T10:23:44;94867.16;;;16.37;98.16
14067;BME280;7108;42.684;23.350;2023-04-21T10:26:11;94870.84;;;16.57;100.00
14067;BME280;7108;42.684;23.350;2023-04-21T10:28:53;94857.13;;;16.67;100.00
14067;BME280;7108;42.684;23.350;2023-04-21T10:31:38;94856.88;;;16.55;96.79
14067;BME280;7108;42.684;23.350;2023-04-21T10:34:13;94851.53;;;16.44;98.61
14067;BME280;7108;42.684;23.350;2023-04-21T10:39:24;94853.38;;;16.54;100.00
14067;BME280;7108;42.684;23.350;2023-04-21T10:41:49;94836.69;;;16.52;100.00
14067;BME280;7108;42.684;23.350;2023-04-21T10:44:16;94836.00;;;16.82;100.00
14067;BME280;7108;42.684;23.350;2023-04-21T10:46:46;94846.00;;;17.21;98.79
14067;BME280;7108;42.684;23.350;2023-04-21T10:49:29;94853.09;;;17.15;91.75
14067;BME280;7108;42.684;23.350;2023-04-21T10:57:12;94841.75;;;17.20;82.68
14067;BME280;7108;42.684;23.350;2023-04-21T10:59:38;94851.84;;;17.53;81.93
14067;BME280;7108;42.684;23.350;2023-04-21T11:02:05;94850.91;;;17.89;75.27
14067;BME280;7108;42.684;23.350;2023-04-21T11:04:32;94836.44;;;17.96;68.77
14067;BME280;7108;42.684;23.350;2023-04-21T11:07:07;94841.75;;;18.03;72.93
14067;BME280;7108;42.684;23.350;2023-04-21T11:09:34;94832.50;;;17.97;66.82
14067;BME280;7108;42.684;23.350;2023-04-21T11:12:02;94838.41;;;17.92;74.18
14067;BME280;7108;42.684;23.350;2023-04-21T11:14:29;94837.22;;;17.70;89.23
14067;BME280;7108;42.684;23.350;2023-04-21T11:16:55;94846.81;;;17.52;92.39
14067;BME280;7108;42.684;23.350;2023-04-21T11:19:21;94848.91;;;17.41;98.62
14067;BME280;7108;42.684;23.350;2023-04-21T11:21:52;94832.66;;;17.34;100.00
14067;BME280;7108;42.684;23.350;2023-04-21T11:24:19;94839.22;;;17.36;100.00
14067;BME280;7108;42.684;23.350;2023-04-21T11:26:45;94840.69;;;17.44;100.00
14067;BME280;7108;42.684;23.350;2023-04-21T11:29:10;94827.47;;;17.43;99.03
14067;BME280;7108;42.684;23.350;2023-04-21T11:31:39;94834.84;;;17.46;94.41
14067;BME280;7108;42.684;23.350;2023-04-21T11:34:05;94837.91;;;17.48;94.03
14067;BME280;7108;42.684;23.350;2023-04-21T11:36:34;94839.88;;;17.47;100.00
14067;BME280;7108;42.684;23.350;2023-04-21T11:39:04;94859.31;;;17.49;99.55
14067;BME280;7108;42.684;23.350;2023-04-21T11:41:32;94852.38;;;17.41;100.00
14067;BME280;7108;42.684;23.350;2023-04-21T11:43:57;94856.88;;;17.25;100.00
14067;BME280;7108;42.684;23.350;2023-04-21T11:46:25;94848.31;;;17.23;100.00
14067;BME280;7108;42.684;23.350;2023-04-21T11:49:17;94850.53;;;17.02;98.63
14067;BME280;7108;42.684;23.350;2023-04-21T11:51:43;94837.25;;;17.07;100.00
14067;BME280;7108;42.684;23.350;2023-04-21T11:54:10;94846.34;;;17.27;92.72
14067;BME280;7108;42.684;23.350;2023-04-21T11:56:41;94835.03;;;17.58;91.44
14067;BME280;7108;42.684;23.350;2023-04-21T11:59:14;94841.47;;;17.71;89.96
14067;BME280;7108;42.684;23.350;2023-04-21T12:01:47;94826.50;;;17.30;78.69
14067;BME280;7108;42.684;23.350;2023-04-21T12:04:20;94840.75;;;17.41;76.14
14067;BME280;7108;42.684;23.350;2023-04-21T12:06:55;94844.22;;;17.41;75.59
14067;BME280;7108;42.684;23.350;2023-04-21T12:09:21;94849.94;;;17.50;81.00
14067;BME280;7108;42.684;23.350;2023-04-21T12:11:49;94855.84;;;17.45;80.97
14067;BME280;7108;42.684;23.350;2023-04-21T12:14:16;94851.25;;;17.39;78.61
14067;BME280;7108;42.684;23.350;2023-04-21T12:16:42;94850.25;;;17.56;83.55
14067;BME280;7108;42.684;23.350;2023-04-21T12:19:07;94851.75;;;17.86;86.24
14067;BME280;7108;42.684;23.350;2023-04-21T12:21:36;94856.28;;;17.96;79.41
14067;BME280;7108;42.684;23.350;2023-04-21T12:24:03;94855.78;;;17.78;74.55
14067;BME280;7108;42.684;23.350;2023-04-21T12:26:29;94860.78;;;17.54;74.14
14067;BME280;7108;42.684;23.350;2023-04-21T12:28:54;94859.59;;;17.55;77.62
14067;BME280;7108;42.684;23.350;2023-04-21T12:31:20;94846.06;;;17.48;75.52
14067;BME280;7108;42.684;23.350;2023-04-21T12:33:45;94845.34;;;17.44;79.05
14067;BME280;7108;42.684;23.350;2023-04-21T12:36:11;94842.88;;;17.23;78.42
14067;BME280;7108;42.684;23.350;2023-04-21T12:38:37;94843.66;;;17.23;79.85
14067;BME280;7108;42.684;23.350;2023-04-21T12:41:02;94840.81;;;17.34;79.69
14067;BME280;7108;42.684;23.350;2023-04-21T12:43:28;94839.47;;;17.15;77.51
14067;BME280;7108;42.684;23.350;2023-04-21T12:45:53;94845.09;;;17.35;85.97
14067;BME280;7108;42.684;23.350;2023-04-21T12:48:19;94838.47;;;17.36;83.34
14067;BME280;7108;42.684;23.350;2023-04-21T12:50:45;94830.59;;;17.11;70.96
14067;BME280;7108;42.684;23.350;2023-04-21T12:53:13;94832.13;;;17.12;76.61
14067;BME280;7108;42.684;23.350;2023-04-21T12:55:38;94834.38;;;17.21;80.98
14067;BME280;7108;42.684;23.350;2023-04-21T12:58:04;94841.28;;;17.29;83.75
14067;BME280;7108;42.684;23.350;2023-04-21T13:00:30;94838.00;;;17.41;90.94
14067;BME280;7108;42.684;23.350;2023-04-21T13:02:57;94838.28;;;17.50;86.07